Time;durP1;ratioP1;P1;durP2;ratioP2;P2;SDS_P1;SDS_P2;PMS_P1;PMS_P2;Temp;Humidity;BMP_temperature;BMP_pressure;BME280_temperature;BME280_humidity;BME280_pressure;Samples;Min_cycle;Max_cycle;Signal;HPM_P1;HPM_P2
2021/12/12 00:02:19;;;;;;;94.25;32.58;;;-0.50;99.90;;;;;;5053255;28;20060;-72
2021/12/12 00:04:48;;;;;;;86.47;30.42;;;-0.30;99.90;;;;;;5048345;28;20033;-73
2021/12/12 00:07:21;;;;;;;92.05;31.70;;;-0.30;99.90;;;;;;5044677;28;20151;-72
2021/12/12 00:09:50;;;;;;;91.93;31.23;;;-0.20;99.90;;;;;;5048699;28;20371;-72
2021/12/12 00:12:29;;;;;;;85.05;30.85;;;-0.90;99.90;;;;;;5054170;28;20147;-72
2021/12/12 00:14:56;;;;;;;86.28;30.35;;;-0.70;99.90;;;;;;5051761;28;20040;-73
2021/12/12 00:17:24;;;;;;;90.00;33.17;;;-0.10;99.90;;;;;;5034224;28;20029;-72
2021/12/12 00:19:51;;;;;;;88.55;32.85;;;0.30;99.90;;;;;;5053208;28;20029;-72
2021/12/12 00:22:21;;;;;;;86.15;33.45;;;-0.10;99.90;;;;;;5036111;28;20041;-72
2021/12/12 00:24:47;;;;;;;89.90;31.27;;;-0.10;99.90;;;;;;5052819;28;20028;-72
2021/12/12 00:27:14;;;;;;;94.03;33.28;;;-0.50;99.90;;;;;;5049105;28;20481;-71
2021/12/12 00:29:40;;;;;;;84.70;30.75;;;-0.10;99.90;;;;;;5044721;28;20387;-72
2021/12/12 00:32:10;;;;;;;95.35;32.72;;;-0.20;99.90;;;;;;5052797;28;20044;-72
2021/12/12 00:34:42;;;;;;;82.18;30.23;;;-0.20;99.90;;;;;;5048902;28;20029;-72
2021/12/12 00:37:09;;;;;;;84.78;31.55;;;0.50;99.90;;;;;;5048638;28;20021;-73
2021/12/12 00:39:38;;;;;;;89.35;31.27;;;-0.20;99.90;;;;;;5044475;28;20079;-72
2021/12/12 00:42:15;;;;;;;88.65;31.63;;;0.00;99.90;;;;;;5052652;28;20344;-72
2021/12/12 00:44:45;;;;;;;86.65;31.83;;;-0.40;99.90;;;;;;5052987;28;20044;-74
2021/12/12 00:47:12;;;;;;;81.43;30.70;;;0.20;99.90;;;;;;5045580;28;20034;-71
2021/12/12 00:49:43;;;;;;;86.20;30.98;;;0.10;99.90;;;;;;5034893;28;20127;-70
2021/12/12 00:52:13;;;;;;;89.38;30.27;;;0.10;99.90;;;;;;5054094;28;20099;-71
2021/12/12 00:54:40;;;;;;;84.40;31.02;;;0.10;99.90;;;;;;5055018;28;20032;-72
2021/12/12 00:57:09;;;;;;;85.07;31.40;;;0.20;99.90;;;;;;5053800;28;20036;-72
2021/12/12 00:59:36;;;;;;;84.03;32.38;;;0.20;99.90;;;;;;5046665;28;20456;-70
2021/12/12 01:02:04;;;;;;;94.38;33.55;;;0.30;99.90;;;;;;5047788;28;20085;-71
2021/12/12 01:04:35;;;;;;;79.18;30.00;;;0.40;99.90;;;;;;5047729;28;20097;-73
2021/12/12 01:07:06;;;;;;;82.40;29.63;;;0.40;99.90;;;;;;5052623;28;20081;-73
2021/12/12 01:09:35;;;;;;;81.32;30.45;;;0.50;99.90;;;;;;5052530;28;20060;-72
2021/12/12 01:12:07;;;;;;;76.40;30.35;;;0.40;99.90;;;;;;5052138;28;20036;-73
2021/12/12 01:14:37;;;;;;;83.63;29.33;;;0.40;99.90;;;;;;5052585;28;20394;-73
2021/12/12 01:17:09;;;;;;;78.13;29.20;;;0.50;99.90;;;;;;5052800;28;20025;-73
2021/12/12 01:19:40;;;;;;;76.30;28.17;;;0.30;99.90;;;;;;5055000;28;20028;-74
2021/12/12 01:22:16;;;;;;;74.80;27.58;;;0.30;99.90;;;;;;5055123;28;20043;-73
2021/12/12 01:24:47;;;;;;;74.57;28.27;;;0.20;99.90;;;;;;5036365;28;20462;-73
2021/12/12 01:27:14;;;;;;;82.03;30.48;;;0.20;99.90;;;;;;5016661;28;20425;-73
2021/12/12 01:29:40;;;;;;;73.63;27.73;;;0.10;99.90;;;;;;5033266;28;20088;-73
2021/12/12 01:32:22;;;;;;;82.38;31.77;;;0.30;99.90;;;;;;5032409;28;20448;-74
2021/12/12 01:34:51;;;;;;;77.95;30.17;;;0.10;99.90;;;;;;5034054;28;20458;-73
2021/12/12 01:39:53;;;;;;;66.27;27.90;;;0.00;99.90;;;;;;5053435;28;20056;-74
2021/12/12 01:42:24;;;;;;;78.22;29.20;;;0.00;99.90;;;;;;5034658;28;20036;-72
2021/12/12 01:45:01;;;;;;;73.68;28.40;;;0.00;99.90;;;;;;5034726;28;20052;-72
2021/12/12 01:47:41;;;;;;;78.65;28.08;;;-0.10;99.90;;;;;;5052765;28;20527;-72
2021/12/12 01:50:23;;;;;;;75.75;28.33;;;-0.10;99.90;;;;;;5052112;28;20051;-73
2021/12/12 01:52:50;;;;;;;74.38;28.55;;;-0.10;99.90;;;;;;5034153;28;20455;-73
2021/12/12 01:55:25;;;;;;;71.60;28.08;;;-0.20;99.90;;;;;;5051469;28;20552;-72
2021/12/12 01:57:56;;;;;;;71.75;28.42;;;-0.10;99.90;;;;;;5052297;28;20051;-72
2021/12/12 02:00:36;;;;;;;76.85;29.98;;;-0.10;99.90;;;;;;5051622;28;20055;-73
2021/12/12 02:03:04;;;;;;;70.97;27.70;;;0.00;99.90;;;;;;5051353;28;20051;-72
2021/12/12 02:05:31;;;;;;;77.68;27.70;;;0.10;99.90;;;;;;5033949;28;20052;-72
2021/12/12 02:08:04;;;;;;;75.40;28.73;;;0.70;99.90;;;;;;5051346;28;20028;-73
2021/12/12 02:10:41;;;;;;;90.05;30.38;;;-0.10;99.90;;;;;;5033703;28;20028;-72
2021/12/12 02:13:11;;;;;;;70.80;26.60;;;-0.20;99.90;;;;;;5051367;28;20415;-72
2021/12/12 02:15:38;;;;;;;76.60;29.02;;;-0.20;99.90;;;;;;5033183;28;20028;-73
2021/12/12 02:18:09;;;;;;;74.63;28.27;;;0.00;99.90;;;;;;5051743;28;20055;-72
2021/12/12 02:20:42;;;;;;;77.57;29.25;;;-0.20;99.90;;;;;;5051056;28;20036;-72
2021/12/12 02:23:57;;;;;;;73.63;27.50;;;-0.30;99.90;;;;;;5051232;28;20033;-72
2021/12/12 02:37:05;;;;;;;80.40;30.33;;;-0.70;99.90;;;;;;5051888;28;20044;-73
2021/12/12 02:39:32;;;;;;;79.50;28.42;;;-0.70;99.90;;;;;;5051410;28;20064;-73
2021/12/12 02:42:02;;;;;;;72.47;29.02;;;-0.90;99.90;;;;;;5050808;28;20112;-72
2021/12/12 02:44:31;;;;;;;79.72;28.88;;;-0.60;99.90;;;;;;5051378;28;20039;-73
2021/12/12 02:47:08;;;;;;;71.72;30.08;;;-0.50;99.90;;;;;;5051760;28;20022;-73
2021/12/12 02:49:40;;;;;;;78.10;29.42;;;-0.70;99.90;;;;;;5014856;28;20057;-72
2021/12/12 02:52:16;;;;;;;68.95;28.13;;;-0.50;99.90;;;;;;5036689;28;20545;-73
2021/12/12 02:54:43;;;;;;;69.82;28.25;;;-0.50;99.90;;;;;;5047964;28;20079;-73
2021/12/12 02:57:09;;;;;;;77.38;29.88;;;-0.70;99.90;;;;;;5050715;28;20064;-73
2021/12/12 02:59:39;;;;;;;73.53;29.70;;;-0.60;99.90;;;;;;5051805;28;20055;-73
2021/12/12 03:02:10;;;;;;;73.60;28.60;;;-0.60;99.90;;;;;;5051676;28;20047;-73
2021/12/12 03:04:35;;;;;;;70.97;28.48;;;-0.80;99.90;;;;;;5050961;28;20032;-72
2021/12/12 03:07:03;;;;;;;75.70;29.35;;;-0.50;99.90;;;;;;5051394;28;20029;-73
2021/12/12 03:09:32;;;;;;;75.18;29.92;;;-0.50;99.90;;;;;;5051006;28;20029;-73
2021/12/12 03:12:05;;;;;;;74.00;30.13;;;-0.60;99.90;;;;;;5051039;28;20020;-72
2021/12/12 03:14:33;;;;;;;82.75;31.75;;;-0.50;99.90;;;;;;5050922;28;20514;-73
2021/12/12 03:17:06;;;;;;;76.15;30.00;;;-0.60;99.90;;;;;;5032948;28;20067;-73
2021/12/12 03:19:32;;;;;;;71.57;29.42;;;-0.50;99.90;;;;;;5051229;28;20021;-72
2021/12/12 03:21:58;;;;;;;80.05;30.40;;;-0.60;99.90;;;;;;5050694;28;20033;-73
2021/12/12 03:24:26;;;;;;;68.30;27.25;;;-0.60;99.90;;;;;;5051292;28;20033;-73
2021/12/12 03:26:57;;;;;;;69.07;28.05;;;-0.50;99.90;;;;;;5053679;28;20079;-72
2021/12/12 03:29:24;;;;;;;65.38;26.42;;;-0.60;99.90;;;;;;5054687;28;20023;-72
2021/12/12 03:31:57;;;;;;;69.50;27.05;;;-0.40;99.90;;;;;;5054694;28;20021;-73
2021/12/12 03:34:30;;;;;;;69.10;28.50;;;-0.50;99.90;;;;;;5054643;28;20040;-72
2021/12/12 03:36:57;;;;;;;69.97;29.02;;;-0.40;99.90;;;;;;5059679;28;20036;-72
2021/12/12 03:39:35;;;;;;;69.80;28.13;;;-0.40;99.90;;;;;;5064069;28;20086;-72
2021/12/12 03:42:06;;;;;;;72.72;28.27;;;-0.40;99.90;;;;;;5067082;22;20041;-67
2021/12/12 03:44:35;;;;;;;68.88;27.98;;;-0.30;99.90;;;;;;5034206;28;20324;-67
2021/12/12 03:47:06;;;;;;;70.35;28.30;;;-0.30;99.90;;;;;;5039103;28;20108;-69
2021/12/12 03:49:34;;;;;;;66.82;27.60;;;-0.30;99.90;;;;;;5023494;28;20374;-66
2021/12/12 03:52:00;;;;;;;62.42;28.23;;;-0.30;99.90;;;;;;5033459;28;20021;-66
2021/12/12 03:54:25;;;;;;;69.28;28.20;;;-0.30;99.90;;;;;;5016389;28;20040;-66
2021/12/12 03:56:51;;;;;;;65.75;27.58;;;-0.20;99.90;;;;;;5033702;28;20108;-67
2021/12/12 03:59:17;;;;;;;59.92;26.77;;;-0.30;99.90;;;;;;5033266;28;20124;-67
2021/12/12 04:01:49;;;;;;;57.85;26.27;;;-0.20;99.90;;;;;;5033317;28;20029;-67
2021/12/12 04:04:26;;;;;;;65.50;26.77;;;-0.20;99.90;;;;;;5016085;28;20439;-66
2021/12/12 04:06:54;;;;;;;65.20;27.63;;;-0.20;99.90;;;;;;5014217;28;20018;-67
2021/12/12 04:09:21;;;;;;;59.90;26.42;;;-0.10;99.90;;;;;;5031941;28;20459;-67
2021/12/12 04:11:50;;;;;;;64.30;25.60;;;-0.20;99.90;;;;;;5033365;28;20092;-67
2021/12/12 04:14:17;;;;;;;66.90;26.60;;;-0.20;99.90;;;;;;5032897;28;20018;-67
2021/12/12 04:16:45;;;;;;;66.82;26.58;;;-0.30;99.90;;;;;;5034035;28;20543;-67
2021/12/12 04:19:12;;;;;;;65.75;27.67;;;-0.20;99.90;;;;;;5033450;28;20479;-66
2021/12/12 04:21:39;;;;;;;61.17;26.98;;;-0.20;99.90;;;;;;5033269;28;20025;-66
2021/12/12 04:24:06;;;;;;;70.75;26.88;;;-0.20;99.90;;;;;;5033453;28;20021;-67
2021/12/12 04:26:38;;;;;;;60.05;25.33;;;-0.30;99.90;;;;;;5032842;28;20096;-67
2021/12/12 04:29:12;;;;;;;66.88;27.63;;;-0.30;99.90;;;;;;5015340;28;20026;-67
2021/12/12 04:31:42;;;;;;;70.75;27.88;;;-0.40;99.90;;;;;;5033378;28;20021;-67
2021/12/12 04:34:08;;;;;;;68.82;24.38;;;-0.30;99.90;;;;;;5033117;28;20029;-65
2021/12/12 04:36:38;;;;;;;65.93;26.75;;;-0.30;99.90;;;;;;5033345;28;20435;-67
2021/12/12 04:39:25;;;;;;;64.45;27.42;;;-0.20;99.90;;;;;;5032232;28;20488;-67
2021/12/12 04:41:54;;;;;;;63.30;24.70;;;-0.10;99.90;;;;;;5015310;28;20326;-68
2021/12/12 04:44:27;;;;;;;72.65;27.08;;;0.10;99.90;;;;;;5032993;28;20029;-66
2021/12/12 04:49:56;;;;;;;62.60;24.60;;;0.10;99.90;;;;;;5032800;28;20036;-67
2021/12/12 04:52:37;;;;;;;64.82;25.65;;;0.10;99.90;;;;;;5032603;28;20467;-65
2021/12/12 04:55:07;;;;;;;63.65;26.50;;;0.20;99.90;;;;;;5015900;28;20101;-66
2021/12/12 04:57:43;;;;;;;62.58;25.52;;;0.20;99.90;;;;;;5032759;28;20024;-66
2021/12/12 05:00:13;;;;;;;64.78;25.70;;;0.20;99.90;;;;;;5032569;28;20423;-65
2021/12/12 05:02:57;;;;;;;61.28;25.50;;;0.20;99.90;;;;;;5014651;28;20029;-65
2021/12/12 05:05:31;;;;;;;59.17;24.40;;;0.20;99.90;;;;;;5032636;28;20033;-68
2021/12/12 05:07:59;;;;;;;57.40;25.23;;;0.30;99.90;;;;;;5032900;28;20017;-67
2021/12/12 05:10:33;;;;;;;64.05;26.02;;;0.30;99.90;;;;;;5031977;28;20407;-67
2021/12/12 05:13:05;;;;;;;;;;;0.40;99.90;;;;;;5032889;28;20456;-67
2021/12/12 05:15:33;;;;;;;64.28;25.10;;;0.50;99.90;;;;;;5032536;28;19909;-68
2021/12/12 05:18:10;;;;;;;56.92;25.08;;;0.60;99.90;;;;;;5032301;28;20155;-67
2021/12/12 05:20:41;;;;;;;62.78;25.23;;;0.70;99.90;;;;;;5032541;28;20029;-67
2021/12/12 05:23:12;;;;;;;59.55;26.67;;;0.70;99.90;;;;;;5031243;28;20053;-67
2021/12/12 05:25:52;;;;;;;56.00;24.70;;;0.80;99.90;;;;;;5032636;28;20033;-66
2021/12/12 05:28:22;;;;;;;57.78;24.00;;;0.80;99.90;;;;;;5032040;28;20391;-67
2021/12/12 05:30:48;;;;;;;49.95;23.45;;;0.80;99.90;;;;;;5032570;28;20024;-67
2021/12/12 05:33:16;;;;;;;59.28;25.25;;;0.80;99.90;;;;;;5031503;28;20426;-68
2021/12/12 05:35:42;;;;;;;62.33;24.50;;;0.80;99.90;;;;;;5032195;28;20117;-68
2021/12/12 05:38:09;;;;;;;48.22;22.92;;;0.80;99.90;;;;;;5013884;28;20434;-68
2021/12/12 05:40:42;;;;;;;56.75;23.27;;;0.80;99.90;;;;;;5032126;28;20391;-66
2021/12/12 05:43:08;;;;;;;56.83;25.08;;;0.70;99.90;;;;;;5013956;28;20040;-66
2021/12/12 05:45:35;;;;;;;57.38;24.45;;;0.70;99.90;;;;;;5031660;28;20029;-68
2021/12/12 05:48:03;;;;;;;65.57;25.90;;;0.60;99.90;;;;;;5032054;28;20068;-67
2021/12/12 05:50:29;;;;;;;63.20;25.85;;;0.50;99.90;;;;;;5031283;28;20033;-68
2021/12/12 05:52:55;;;;;;;59.75;25.33;;;0.50;99.90;;;;;;5031759;28;20036;-68
2021/12/12 05:55:25;;;;;;;64.25;26.23;;;0.40;99.90;;;;;;5031623;28;20499;-66
2021/12/12 05:57:55;;;;;;;56.13;25.83;;;0.40;99.90;;;;;;5031839;28;20030;-67
2021/12/12 06:00:25;;;;;;;57.67;25.42;;;0.30;99.90;;;;;;5032249;28;20488;-68
2021/12/12 06:02:52;;;;;;;58.63;26.42;;;0.30;99.90;;;;;;5031163;28;20060;-68
2021/12/12 06:05:18;;;;;;;63.53;25.55;;;0.20;99.90;;;;;;5031190;28;20491;-66
2021/12/12 06:07:44;;;;;;;62.17;26.80;;;0.20;99.90;;;;;;5031925;28;20036;-67
2021/12/12 06:10:13;;;;;;;69.55;27.35;;;0.20;99.90;;;;;;5031729;28;20487;-67
2021/12/12 06:12:40;;;;;;;68.70;26.75;;;0.10;99.90;;;;;;5032238;28;20427;-68
2021/12/12 06:15:10;;;;;;;56.15;25.25;;;0.10;99.90;;;;;;5013677;28;20052;-67
2021/12/12 06:17:37;;;;;;;64.68;26.35;;;0.10;99.90;;;;;;5014041;28;20646;-70
2021/12/12 06:20:07;;;;;;;57.80;26.00;;;0.10;99.90;;;;;;5031387;28;20397;-67
2021/12/12 06:22:33;;;;;;;61.75;25.95;;;0.10;99.90;;;;;;5031325;28;20105;-67
2021/12/12 06:24:59;;;;;;;60.70;25.33;;;0.10;99.90;;;;;;5031395;28;20026;-67
2021/12/12 06:27:25;;;;;;;64.28;26.73;;;0.20;99.90;;;;;;5031585;28;20025;-67
2021/12/12 06:29:54;;;;;;;59.97;24.70;;;0.20;99.90;;;;;;5031556;28;20017;-67
2021/12/12 06:32:20;;;;;;;55.92;25.02;;;0.20;99.90;;;;;;5013023;28;20220;-67
2021/12/12 06:34:47;;;;;;;62.13;25.58;;;0.30;99.90;;;;;;5031560;28;20391;-66
2021/12/12 06:37:14;;;;;;;57.30;25.00;;;0.20;99.90;;;;;;5013487;28;20156;-67
2021/12/12 06:39:40;;;;;;;59.05;24.67;;;0.30;99.90;;;;;;5031463;28;20127;-66
2021/12/12 06:42:08;;;;;;;54.00;23.98;;;0.30;99.90;;;;;;5030720;28;20518;-63
2021/12/12 06:44:38;;;;;;;58.80;25.58;;;0.30;99.90;;;;;;5031040;28;20416;-66
2021/12/12 06:47:04;;;;;;;55.25;24.08;;;0.40;99.90;;;;;;5030921;28;20460;-66
2021/12/12 06:49:30;;;;;;;61.92;25.88;;;0.40;99.90;;;;;;5031698;28;20080;-67
2021/12/12 06:52:00;;;;;;;63.47;25.48;;;0.40;99.90;;;;;;5031033;28;20051;-68
2021/12/12 06:54:29;;;;;;;60.22;25.00;;;0.40;99.90;;;;;;5031947;28;20026;-66
2021/12/12 06:56:58;;;;;;;56.58;25.10;;;0.40;99.90;;;;;;5031380;28;20041;-66
2021/12/12 06:59:28;;;;;;;66.40;26.10;;;0.40;99.90;;;;;;5031235;28;20032;-68
2021/12/12 07:01:55;;;;;;;67.40;25.48;;;0.50;99.90;;;;;;5033073;28;20575;-68
2021/12/12 07:04:22;;;;;;;75.78;26.40;;;0.50;99.90;;;;;;5035225;28;20029;-68
2021/12/12 07:06:52;;;;;;;56.40;23.95;;;0.50;99.90;;;;;;5035003;28;20036;-68
2021/12/12 07:09:18;;;;;;;64.82;25.20;;;0.40;99.90;;;;;;5034581;28;20411;-71
2021/12/12 07:11:46;;;;;;;61.50;24.63;;;0.60;99.90;;;;;;5034510;28;20029;-68
2021/12/12 07:14:14;;;;;;;62.03;25.60;;;0.70;99.90;;;;;;5034418;28;20035;-68
2021/12/12 07:16:41;;;;;;;60.92;25.52;;;0.70;99.90;;;;;;5035044;28;20072;-68
2021/12/12 07:19:07;;;;;;;59.10;25.50;;;0.70;99.90;;;;;;5034654;28;20407;-67
2021/12/12 07:21:32;;;;;;;61.47;26.83;;;0.70;99.90;;;;;;5034654;28;20025;-68
2021/12/12 07:24:01;;;;;;;59.97;25.42;;;0.70;99.90;;;;;;5034306;28;20052;-67
2021/12/12 07:26:27;;;;;;;63.08;26.27;;;0.70;99.90;;;;;;5034711;28;20132;-67
2021/12/12 07:28:55;;;;;;;63.20;25.90;;;0.70;99.90;;;;;;5034320;28;20079;-67
2021/12/12 07:31:28;;;;;;;59.38;24.90;;;0.70;99.90;;;;;;5034296;28;20033;-68
2021/12/12 07:33:57;;;;;;;53.58;25.13;;;0.70;99.90;;;;;;5034391;28;20479;-68
2021/12/12 07:36:24;;;;;;;65.85;25.73;;;0.70;99.90;;;;;;5034684;28;20022;-67
2021/12/12 07:38:58;;;;;;;65.25;25.73;;;0.70;99.90;;;;;;5034446;28;20100;-68
2021/12/12 07:41:29;;;;;;;57.40;24.40;;;0.70;99.90;;;;;;5034569;28;20025;-68
2021/12/12 07:43:56;;;;;;;66.30;28.00;;;0.70;99.90;;;;;;5036403;28;20025;-64
2021/12/12 07:46:22;;;;;;;56.35;24.27;;;0.80;99.90;;;;;;5036304;28;20408;-68
2021/12/12 07:48:50;;;;;;;65.63;26.02;;;0.80;99.90;;;;;;5035795;28;20061;-69
2021/12/12 07:51:16;;;;;;;59.10;25.08;;;0.80;99.90;;;;;;5017988;28;20025;-70
2021/12/12 07:53:43;;;;;;;63.28;26.15;;;1.60;99.90;;;;;;5034452;28;20029;-68
2021/12/12 07:56:09;;;;;;;63.90;26.60;;;0.90;99.90;;;;;;5034912;28;20397;-67
2021/12/12 07:58:36;;;;;;;56.70;26.23;;;3.30;99.90;;;;;;5034529;28;20036;-69
2021/12/12 08:01:05;;;;;;;64.10;26.27;;;0.90;99.90;;;;;;5034037;28;20087;-70
2021/12/12 08:03:38;;;;;;;62.53;27.23;;;1.00;99.90;;;;;;5033398;28;20116;-69
2021/12/12 08:06:06;;;;;;;57.20;25.08;;;0.90;99.90;;;;;;5033573;28;20030;-67
2021/12/12 08:08:32;;;;;;;67.22;26.58;;;1.10;99.90;;;;;;5033285;28;20108;-67
2021/12/12 08:10:59;;;;;;;62.78;27.42;;;1.10;99.90;;;;;;5033865;28;20395;-67
2021/12/12 08:13:25;;;;;;;62.28;26.13;;;1.20;99.90;;;;;;5032970;28;20018;-66
2021/12/12 08:15:51;;;;;;;62.70;26.02;;;1.20;99.90;;;;;;5033484;28;20543;-67
2021/12/12 08:18:18;;;;;;;65.32;26.65;;;1.20;99.90;;;;;;5033450;28;20159;-66
2021/12/12 08:20:50;;;;;;;64.63;26.38;;;1.20;99.90;;;;;;5033514;28;20514;-67
2021/12/12 08:23:17;;;;;;;58.65;25.52;;;1.20;99.90;;;;;;5032808;28;20036;-67
2021/12/12 08:25:44;;;;;;;62.83;25.88;;;1.20;99.90;;;;;;5033268;28;20509;-67
2021/12/12 08:28:10;;;;;;;60.55;26.63;;;1.20;99.90;;;;;;5033545;28;20448;-69
2021/12/12 08:30:37;;;;;;;61.90;25.95;;;1.30;99.90;;;;;;5033189;28;20036;-68
2021/12/12 08:33:05;;;;;;;59.33;25.08;;;1.30;99.90;;;;;;5015063;28;20033;-67
2021/12/12 08:35:31;;;;;;;62.65;27.33;;;1.40;99.90;;;;;;5033519;28;20091;-68
2021/12/12 08:37:59;;;;;;;69.35;26.40;;;1.50;99.90;;;;;;5032640;28;20036;-68
2021/12/12 08:40:29;;;;;;;71.05;25.95;;;1.60;99.90;;;;;;5033244;28;20564;-67
2021/12/12 08:42:56;;;;;;;63.70;26.83;;;1.60;99.90;;;;;;5032261;28;20571;-67
2021/12/12 08:45:26;;;;;;;58.35;25.25;;;1.70;99.90;;;;;;5033220;28;20047;-67
2021/12/12 08:47:52;;;;;;;61.30;27.10;;;1.80;99.90;;;;;;5032942;28;20026;-67
2021/12/12 08:50:24;;;;;;;67.78;26.63;;;1.90;99.90;;;;;;4335334;28;10000814;-68
2021/12/12 08:52:50;;;;;;;53.47;23.98;;;2.00;99.90;;;;;;5029110;28;20315;-68
2021/12/12 08:55:22;;;;;;;61.53;24.45;;;2.00;99.90;;;;;;5012351;28;20396;-66
2021/12/12 08:57:57;;;;;;;54.05;23.17;;;2.10;99.90;;;;;;5029879;28;20021;-66
2021/12/12 09:00:24;;;;;;;59.45;24.98;;;2.10;99.90;;;;;;5029954;28;20052;-68
2021/12/12 09:02:51;;;;;;;59.45;24.95;;;2.20;99.90;;;;;;5029345;28;20536;-67
2021/12/12 09:05:23;;;;;;;51.70;22.65;;;2.30;99.90;;;;;;5029132;28;20030;-69
2021/12/12 09:07:51;;;;;;;60.42;24.85;;;2.40;99.90;;;;;;5029835;28;20029;-69
2021/12/12 09:10:32;;;;;;;49.05;23.25;;;2.40;99.90;;;;;;5029561;28;20053;-68
2021/12/12 09:13:10;;;;;;;49.53;23.90;;;2.50;99.90;;;;;;5029420;28;20076;-68
2021/12/12 09:15:42;;;;;;;57.17;23.35;;;2.60;99.90;;;;;;5029532;28;20029;-66
2021/12/12 09:18:16;;;;;;;54.83;22.27;;;2.60;99.90;;;;;;5029104;28;20056;-67
2021/12/12 09:20:53;;;;;;;61.92;24.15;;;2.60;99.90;;;;;;5029158;28;20026;-66
2021/12/12 09:24:01;;;;;;;59.47;23.35;;;2.70;99.90;;;;;;5028640;28;20467;-67
2021/12/12 09:26:27;;;;;;;53.28;23.23;;;2.70;99.90;;;;;;5029158;28;20049;-66
2021/12/12 09:29:30;;;;;;;53.88;23.33;;;2.70;99.90;;;;;;5029737;28;20433;-67
2021/12/12 09:32:05;;;;;;;62.53;26.40;;;2.80;99.90;;;;;;5011233;28;20513;-65
2021/12/12 09:34:33;;;;;;;;;;;2.90;99.90;;;;;;4995233;28;20044;-68
2021/12/12 09:37:07;;;;;;;48.58;22.27;;;2.90;99.90;;;;;;5030378;28;19952;-68
2021/12/12 09:39:37;;;;;;;56.40;23.85;;;2.90;99.90;;;;;;5027933;28;20057;-68
2021/12/12 09:42:33;;;;;;;52.58;23.25;;;2.90;99.90;;;;;;5011901;28;20053;-72
2021/12/12 09:45:28;;;;;;;59.88;24.15;;;3.00;99.90;;;;;;5018847;28;20467;-68
2021/12/12 09:51:16;;;;;;;53.67;21.90;;;3.00;99.90;;;;;;5032126;28;20456;-69
2021/12/12 09:53:50;;;;;;;47.67;21.65;;;3.10;99.90;;;;;;5031661;28;20034;-67
2021/12/12 09:56:32;;;;;;;;;;;3.10;99.90;;;;;;5015500;28;20542;-67
2021/12/12 09:59:23;;;;;;;52.67;22.33;;;3.10;99.90;;;;;;5034950;28;19920;-69
2021/12/12 10:02:17;;;;;;;47.28;21.92;;;3.00;99.90;;;;;;5014195;28;20036;-69
2021/12/12 10:05:08;;;;;;;50.45;23.52;;;3.10;99.90;;;;;;5012118;28;20063;-68
2021/12/12 10:07:46;;;;;;;49.63;22.02;;;3.10;99.90;;;;;;5027772;28;20116;-68
2021/12/12 10:10:21;;;;;;;48.08;23.60;;;3.10;99.90;;;;;;5011331;28;20399;-71
2021/12/12 10:13:06;;;;;;;52.10;22.25;;;3.20;99.90;;;;;;5029917;28;20032;-68
2021/12/12 10:15:39;;;;;;;54.50;22.70;;;3.30;99.90;;;;;;5031776;28;20104;-67
2021/12/12 10:18:14;;;;;;;56.37;24.30;;;3.30;99.90;;;;;;5009898;28;20029;-68
2021/12/12 10:20:46;;;;;;;45.67;21.35;;;3.30;99.90;;;;;;5031541;28;20026;-69
2021/12/12 10:23:15;;;;;;;48.25;21.60;;;3.40;99.90;;;;;;5031277;28;20155;-67
2021/12/12 10:26:07;;;;;;;47.42;22.60;;;3.50;99.90;;;;;;5031091;28;20426;-69
2021/12/12 10:28:44;;;;;;;50.47;20.83;;;3.50;99.90;;;;;;5031264;28;20445;-66
2021/12/12 10:31:26;;;;;;;48.33;20.95;;;3.60;99.90;;;;;;5031764;28;20387;-68
2021/12/12 10:34:04;;;;;;;50.30;22.23;;;3.70;99.90;;;;;;5029856;28;20026;-66
2021/12/12 10:37:03;;;;;;;55.20;22.63;;;3.70;99.90;;;;;;5032238;28;20510;-67
2021/12/12 10:39:33;;;;;;;44.88;21.27;;;3.80;99.90;;;;;;4998056;28;20082;-70
2021/12/12 10:42:24;;;;;;;51.33;23.05;;;3.70;99.90;;;;;;5032885;28;20489;-68
2021/12/12 10:44:58;;;;;;;50.67;23.42;;;3.70;99.90;;;;;;5022477;28;20514;-68
2021/12/12 10:47:52;;;;;;;55.30;22.20;;;3.70;99.90;;;;;;5016891;28;20018;-67
2021/12/12 10:50:42;;;;;;;53.35;22.33;;;3.70;99.90;;;;;;5032748;28;20367;-68
2021/12/12 10:53:18;;;;;;;45.97;21.85;;;3.70;99.90;;;;;;5032358;28;20364;-68
2021/12/12 10:55:53;;;;;;;52.88;22.55;;;3.70;99.90;;;;;;5036071;28;20032;-65
2021/12/12 10:58:33;;;;;;;49.92;23.15;;;3.80;99.90;;;;;;5031317;28;20029;-68
2021/12/12 11:01:27;;;;;;;47.95;22.30;;;3.80;99.90;;;;;;5035342;28;20087;-66
2021/12/12 11:04:13;;;;;;;53.15;21.70;;;3.90;99.90;;;;;;5035017;28;20025;-67
2021/12/12 11:07:00;;;;;;;56.72;22.75;;;3.90;99.90;;;;;;5023677;28;20487;-69
2021/12/12 11:09:31;;;;;;;58.60;23.75;;;3.90;99.90;;;;;;5028520;28;20037;-64
2021/12/12 11:11:59;;;;;;;57.25;23.58;;;3.70;99.90;;;;;;5033635;28;20406;-60
2021/12/12 11:14:54;;;;;;;56.15;23.83;;;3.70;99.90;;;;;;5030558;28;20100;-64
2021/12/12 11:17:29;;;;;;;55.87;22.93;;;3.60;99.90;;;;;;5006122;28;20372;-65
2021/12/12 11:20:17;;;;;;;65.82;23.85;;;3.50;99.90;;;;;;5020364;28;20702;-66
2021/12/12 11:22:48;;;;;;;61.92;25.27;;;3.40;99.90;;;;;;5027825;28;20116;-69
2021/12/12 11:25:18;;;;;;;60.22;23.40;;;1.30;99.90;;;;;;5019841;28;20089;-71
2021/12/12 11:27:50;;;;;;;57.40;22.48;;;3.70;99.90;;;;;;5029643;28;20033;-67
2021/12/12 11:30:24;;;;;;;50.47;23.20;;;3.80;99.90;;;;;;5011107;28;20030;-69
2021/12/12 11:32:53;;;;;;;57.83;23.35;;;4.70;99.90;;;;;;5028185;28;20022;-68
2021/12/12 11:35:22;;;;;;;57.58;24.38;;;3.80;99.90;;;;;;5017010;28;20044;-68
2021/12/12 11:37:56;;;;;;;52.78;22.92;;;3.90;99.90;;;;;;5030368;28;20032;-69
2021/12/12 11:40:33;;;;;;;56.72;23.75;;;3.90;99.90;;;;;;5031340;28;20116;-70
2021/12/12 11:43:26;;;;;;;54.95;23.60;;;3.90;99.90;;;;;;5015450;28;20066;-64
2021/12/12 11:46:00;;;;;;;50.75;21.60;;;3.90;99.90;;;;;;5028881;28;20034;-69
2021/12/12 11:48:53;;;;;;;56.83;22.40;;;3.90;99.90;;;;;;5029549;28;20017;-71
2021/12/12 11:51:32;;;;;;;48.03;21.15;;;4.00;99.90;;;;;;5025267;28;20013;-66
2021/12/12 11:54:11;;;;;;;45.50;22.33;;;4.00;99.90;;;;;;5033307;28;20117;-67
2021/12/12 11:56:48;;;;;;;49.20;22.45;;;3.90;99.90;;;;;;5031664;28;20029;-71
2021/12/12 11:59:22;;;;;;;46.97;21.63;;;3.90;99.90;;;;;;5033707;28;20380;-67
2021/12/12 12:01:51;;;;;;;46.90;21.00;;;;;;;;;;5033717;28;20030;-68
2021/12/12 12:04:44;;;;;;;50.40;21.60;;;3.90;99.90;;;;;;5032183;28;20025;-69
2021/12/12 12:07:48;;;;;;;51.42;21.80;;;3.80;99.90;;;;;;5032721;28;20024;-67
2021/12/12 12:10:40;;;;;;;52.60;21.83;;;3.80;99.90;;;;;;5017502;28;20021;-68
2021/12/12 12:13:20;;;;;;;52.53;22.50;;;3.90;99.90;;;;;;5032916;28;20107;-68
2021/12/12 12:16:10;;;;;;;49.45;21.63;;;4.00;99.90;;;;;;5033066;28;20048;-66
2021/12/12 12:18:49;;;;;;;47.90;21.35;;;4.10;99.90;;;;;;5030065;28;20048;-69
2021/12/12 12:21:32;;;;;;;44.65;20.65;;;4.60;99.90;;;;;;5019205;28;20021;-67
2021/12/12 12:24:37;;;;;;;41.50;20.05;;;4.50;99.90;;;;;;5030056;28;20411;-66
2021/12/12 12:27:36;;;;;;;45.08;20.33;;;4.80;99.90;;;;;;5026791;28;20021;-68
2021/12/12 12:30:02;;;;;;;42.33;19.27;;;5.20;99.90;;;;;;5032398;28;20029;-68
2021/12/12 12:32:53;;;;;;;39.38;18.60;;;5.40;99.90;;;;;;5032831;28;20456;-68
2021/12/12 12:35:43;;;;;;;36.72;18.50;;;5.50;99.90;;;;;;5015885;28;20452;-67
2021/12/12 12:38:11;;;;;;;37.72;18.23;;;5.40;99.90;;;;;;4332719;28;10001190;-67
2021/12/12 12:41:10;;;;;;;40.97;18.88;;;5.30;99.90;;;;;;5030224;28;20030;-68
2021/12/12 12:44:13;;;;;;;31.77;17.08;;;5.30;99.90;;;;;;5029782;28;20036;-67
2021/12/12 12:47:10;;;;;;;40.05;17.17;;;5.40;99.90;;;;;;5029148;28;20040;-69
2021/12/12 12:50:26;;;;;;;32.08;17.00;;;5.40;99.90;;;;;;5030700;28;20029;-68
2021/12/12 12:53:16;;;;;;;37.85;17.92;;;5.60;99.90;;;;;;5030010;28;20034;-69
2021/12/12 12:56:09;;;;;;;29.25;16.58;;;5.70;99.90;;;;;;5029401;28;20022;-68
2021/12/12 12:58:46;;;;;;;31.95;15.63;;;5.60;99.90;;;;;;5010400;28;20022;-68
2021/12/12 13:01:29;;;;;;;34.25;16.52;;;5.50;99.90;;;;;;5029802;28;20045;-69
2021/12/12 13:04:15;;;;;;;32.30;16.33;;;5.40;99.90;;;;;;5030004;28;20048;-68
2021/12/12 13:07:18;;;;;;;26.95;16.40;;;5.30;99.90;;;;;;5029984;28;20087;-70
2021/12/12 13:09:43;;;;;;;31.13;16.73;;;5.20;99.90;;;;;;5029476;28;20033;-69
2021/12/12 13:12:09;;;;;;;35.13;16.50;;;5.30;99.90;;;;;;5025809;28;20498;-69
2021/12/12 13:15:12;;;;;;;31.13;16.63;;;5.30;99.90;;;;;;5029568;28;20407;-68
2021/12/12 13:17:52;;;;;;;29.92;16.10;;;5.30;99.90;;;;;;5009507;28;20032;-71
2021/12/12 13:20:34;;;;;;;28.00;16.13;;;5.40;99.90;;;;;;5025095;28;20017;-70
2021/12/12 13:23:17;;;;;;;31.35;15.45;;;5.30;99.90;;;;;;5026614;28;20037;-69
2021/12/12 13:26:10;;;;;;;27.80;16.00;;;5.40;99.90;;;;;;5028362;28;20408;-67
2021/12/12 13:29:03;;;;;;;26.58;15.07;;;5.30;99.90;;;;;;5026732;28;20055;-70